Time;durP1;ratioP1;P1;durP2;ratioP2;P2;SDS_P1;SDS_P2;PMS_P1;PMS_P2;Temp;Humidity;BMP_temperature;BMP_pressure;BME280_temperature;BME280_humidity;BME280_pressure;Samples;Min_cycle;Max_cycle;Signal;HPM_P1;HPM_P2
2022/11/29 00:01:16;;;;;;;123.50;18.30;;;;;;;-145.18;100.00;46709.22;5011854;28;20271;-77
2022/11/29 00:03:41;;;;;;;116.80;16.67;;;;;;;-145.18;100.00;46717.03;5015535;28;20695;-78
2022/11/29 00:06:10;;;;;;;67.70;16.20;;;;;;;-145.18;100.00;46703.38;5014744;28;20302;-77
2022/11/29 00:08:36;;;;;;;64.20;14.10;;;;;;;-145.18;100.00;46705.31;5014745;28;20025;-77
2022/11/29 00:11:08;;;;;;;125.37;16.80;;;;;;;-145.18;100.00;46711.19;5014808;28;20293;-77
2022/11/29 00:13:34;;;;;;;108.10;15.10;;;;;;;-145.18;100.00;46707.28;5014753;28;20028;-78
2022/11/29 00:16:08;;;;;;;58.30;13.83;;;;;;;-145.18;100.00;46703.38;5014469;28;20306;-78
2022/11/29 00:18:33;;;;;;;139.97;16.30;;;;;;;-145.18;100.00;46695.56;5014543;28;20403;-78
2022/11/29 00:20:59;;;;;;;63.33;13.40;;;;;;;-145.18;100.00;46703.38;5014514;28;20714;-77
2022/11/29 00:23:25;;;;;;;116.87;13.93;;;;;;;-145.18;100.00;46707.28;5014982;28;20110;-77
2022/11/29 00:25:50;;;;;;;68.17;14.03;;;;;;;-145.18;100.00;46703.38;5014275;28;20668;-77
2022/11/29 00:28:16;;;;;;;102.67;14.97;;;;;;;-145.18;100.00;46701.41;5014319;28;20034;-77
2022/11/29 00:30:41;;;;;;;91.30;15.77;;;;;;;-145.18;100.00;46705.31;5013993;28;20105;-77
2022/11/29 00:33:06;;;;;;;62.83;14.50;;;;;;;-145.18;100.00;46717.03;5014311;28;20403;-77
2022/11/29 00:35:32;;;;;;;67.07;14.97;;;;;;;-145.18;100.00;46707.28;5012784;28;20029;-77
2022/11/29 00:37:57;;;;;;;18.27;14.07;;;;;;;-145.18;100.00;46703.38;5014160;28;20062;-77
2022/11/29 00:40:23;;;;;;;101.07;16.30;;;;;;;-145.18;100.00;46703.38;5014027;28;20471;-77
2022/11/29 00:42:48;;;;;;;43.97;16.70;;;;;;;-145.18;100.00;46705.31;4996449;28;20490;-77
2022/11/29 00:45:13;;;;;;;63.77;15.33;;;;;;;-145.18;100.00;46701.41;5014383;28;20038;-77
2022/11/29 00:47:39;;;;;;;56.23;15.57;;;;;;;-145.18;100.00;46695.56;5014449;28;20092;-77
2022/11/29 00:50:05;;;;;;;87.33;17.43;;;;;;;-145.18;100.00;46699.47;5014510;28;20030;-78
2022/11/29 00:52:31;;;;;;;36.07;16.43;;;;;;;-145.18;100.00;46693.59;5014031;28;20036;-78
2022/11/29 00:54:56;;;;;;;35.93;16.60;;;;;;;-145.18;100.00;46709.22;4996582;28;20919;-77
2022/11/29 00:57:21;;;;;;;86.13;17.00;;;;;;;-145.18;100.00;46695.56;4996617;28;20121;-77
2022/11/29 00:59:46;;;;;;;59.83;16.30;;;;;;;-145.18;100.00;46701.41;5012550;28;20061;-78
2022/11/29 01:02:12;;;;;;;55.00;15.20;;;;;;;-145.18;100.00;46709.22;5013660;28;20034;-78
2022/11/29 01:04:37;;;;;;;97.60;16.23;;;;;;;-145.18;100.00;46715.09;5014127;28;20070;-78
2022/11/29 01:07:03;;;;;;;77.20;16.47;;;;;;;-145.18;100.00;46699.47;5014348;28;20038;-78
2022/11/29 01:09:28;;;;;;;108.33;16.10;;;;;;;-145.18;100.00;46703.38;5014093;28;20037;-78
2022/11/29 01:11:53;;;;;;;50.07;14.30;;;;;;;-145.18;100.00;46695.56;5013966;28;20130;-78
2022/11/29 01:14:19;;;;;;;199.67;20.37;;;;;;;-145.18;100.00;46711.19;5014171;28;20080;-77
2022/11/29 01:16:44;;;;;;;40.97;14.10;;;;;;;-145.18;100.00;46707.28;5013926;28;20040;-77
2022/11/29 01:19:09;;;;;;;73.77;14.73;;;;;;;-145.18;100.00;46707.28;5013851;28;20038;-77
2022/11/29 01:21:35;;;;;;;39.90;14.03;;;;;;;-145.18;100.00;46709.22;5014501;28;20034;-77
2022/11/29 01:24:00;;;;;;;47.03;13.87;;;;;;;-145.18;100.00;46713.13;5014116;28;20054;-77
2022/11/29 01:26:28;;;;;;;41.10;13.77;;;;;;;-145.18;100.00;46693.59;5014268;28;20080;-77
2022/11/29 01:28:55;;;;;;;98.77;15.47;;;;;;;-145.18;100.00;46699.47;4996479;28;20084;-77
2022/11/29 01:31:26;;;;;;;57.70;14.83;;;;;;;-145.18;100.00;46713.13;5014124;28;20318;-77
2022/11/29 01:33:56;;;;;;;46.50;14.73;;;;;;;-145.18;100.00;46717.03;4996345;28;20366;-77
2022/11/29 01:36:22;;;;;;;59.33;14.80;;;;;;;-145.18;100.00;46709.22;5013889;28;20660;-76
2022/11/29 01:38:48;;;;;;;42.50;14.50;;;;;;;-145.18;100.00;46715.09;5013682;28;20370;-76
2022/11/29 01:41:16;;;;;;;37.33;15.40;;;;;;;-145.18;100.00;46701.41;5013710;28;20711;-77
2022/11/29 01:43:58;;;;;;;35.80;14.43;;;;;;;-145.18;100.00;46709.22;5013697;28;20442;-77
2022/11/29 01:46:25;;;;;;;48.67;14.73;;;;;;;-145.18;100.00;46695.56;5013637;28;20667;-77
2022/11/29 01:48:54;;;;;;;54.53;15.40;;;;;;;-145.18;100.00;46699.47;5013434;28;20271;-77
2022/11/29 01:51:20;;;;;;;37.67;14.43;;;;;;;-145.18;100.00;46701.41;5013348;28;20770;-78
2022/11/29 01:53:45;;;;;;;30.97;15.10;;;;;;;-145.18;100.00;46697.50;5012959;28;20286;-77
2022/11/29 01:56:14;;;;;;;45.10;15.77;;;;;;;-145.18;100.00;46695.56;5012760;28;20656;-78
2022/11/29 01:58:42;;;;;;;46.50;15.97;;;;;;;-145.18;100.00;46705.31;5013368;28;20033;-77
2022/11/29 02:01:07;;;;;;;96.60;16.10;;;;;;;-145.18;100.00;46707.28;5013234;28;20262;-77
2022/11/29 02:03:32;;;;;;;58.13;15.67;;;;;;;-145.18;100.00;46699.47;5013363;28;20276;-77
2022/11/29 02:05:58;;;;;;;102.63;15.57;;;;;;;-145.18;100.00;46693.59;5013068;28;20417;-78
2022/11/29 02:08:30;;;;;;;67.73;14.83;;;;;;;-145.18;100.00;46693.59;4995912;28;20034;-78
2022/11/29 02:11:15;;;;;;;166.87;18.13;;;;;;;-145.18;100.00;46693.59;5013045;28;20275;-77
2022/11/29 02:14:06;;;;;;;98.53;17.07;;;;;;;-145.18;100.00;46703.38;5013054;28;20724;-78
2022/11/29 02:17:10;;;;;;;66.27;16.60;;;;;;;-145.18;100.00;46689.69;5012701;28;20291;-78
2022/11/29 02:20:07;;;;;;;66.67;17.07;;;;;;;-145.18;100.00;46687.75;4992019;28;20276;-77
2022/11/29 02:23:23;;;;;;;135.07;17.37;;;;;;;-145.18;100.00;46691.66;5011208;28;20276;-78
2022/11/29 02:26:13;;;;;;;103.13;16.70;;;;;;;-145.18;100.00;46687.75;4986408;28;20329;-78
2022/11/29 02:28:54;;;;;;;103.90;16.80;;;;;;;-145.18;100.00;46689.69;5012607;28;20275;-78
2022/11/29 02:31:19;;;;;;;139.97;18.17;;;;;;;-145.18;100.00;46691.66;5011497;28;20275;-78
2022/11/29 02:33:58;;;;;;;139.73;18.20;;;;;;;-145.18;100.00;46693.59;5012683;28;20270;-78
2022/11/29 02:37:09;;;;;;;174.90;20.93;;;;;;;-145.18;100.00;46687.75;5012429;28;20034;-78
2022/11/29 02:39:45;;;;;;;86.53;18.80;;;;;;;-145.18;100.00;46689.69;4990428;28;20283;-77
2022/11/29 02:42:20;;;;;;;285.97;23.57;;;;;;;-145.18;100.00;46689.69;5011918;28;20792;-78
2022/11/29 02:45:01;;;;;;;63.30;18.80;;;;;;;-145.18;100.00;46687.75;5010511;28;20278;-78
2022/11/29 02:47:59;;;;;;;120.33;17.97;;;;;;;-145.18;100.00;46689.69;5011756;28;20771;-78
2022/11/29 02:50:39;;;;;;;176.90;21.63;;;;;;;-145.18;100.00;46691.66;4993951;28;20328;-78
2022/11/29 02:53:22;;;;;;;95.23;17.53;;;;;;;-145.18;100.00;46687.75;5010223;28;20303;-78
2022/11/29 02:56:09;;;;;;;173.20;21.43;;;;;;;-145.18;100.00;46693.59;5011396;28;20298;-77
2022/11/29 02:59:02;;;;;;;201.73;19.90;;;;;;;-145.18;100.00;46685.78;5009832;28;20968;-78
2022/11/29 03:04:04;;;;;;;73.07;16.90;;;;;;;-145.18;100.00;46691.66;5032849;22;20303;-78
2022/11/29 03:06:39;;;;;;;197.90;19.20;;;;;;;-145.18;100.00;46681.88;5011133;28;20294;-79
2022/11/29 03:09:15;;;;;;;164.70;18.67;;;;;;;-145.18;100.00;46687.75;4993412;28;20045;-79
2022/11/29 03:11:49;;;;;;;146.43;20.13;;;;;;;-145.18;100.00;46689.69;5011317;28;20639;-79
2022/11/29 03:14:27;;;;;;;158.17;21.63;;;;;;;-145.18;100.00;46687.75;5011207;28;20033;-79
2022/11/29 03:17:24;;;;;;;204.63;20.20;;;;;;;-145.18;100.00;46681.88;5010787;28;20295;-79
2022/11/29 03:20:20;;;;;;;159.07;17.63;;;;;;;-145.18;100.00;46695.56;5011122;28;20251;-78
2022/11/29 03:22:54;;;;;;;166.82;18.35;;;;;;;-145.18;100.00;46683.84;5013269;28;20350;-79
2022/11/29 03:25:32;;;;;;;125.70;17.67;;;;;;;-145.18;100.00;46679.94;5030555;28;20068;-79
2022/11/29 03:28:04;;;;;;;159.30;18.90;;;;;;;-145.18;100.00;46689.69;5030329;28;20266;-79
2022/11/29 03:30:33;;;;;;;98.60;16.93;;;;;;;-145.18;100.00;46691.66;5030893;28;20313;-79
2022/11/29 03:33:13;;;;;;;63.37;17.00;;;;;;;-145.18;100.00;46683.84;5030385;28;20333;-79
2022/11/29 03:35:59;;;;;;;151.60;18.20;;;;;;;-145.18;100.00;46695.56;5030159;28;20333;-79
2022/11/29 03:38:43;;;;;;;214.50;18.13;;;;;;;-145.18;100.00;46683.84;5030103;28;20269;-79
2022/11/29 03:41:08;;;;;;;129.50;16.23;;;;;;;-145.18;100.00;46689.69;5030437;28;20029;-79
2022/11/29 03:43:55;;;;;;;133.33;16.90;;;;;;;-145.18;100.00;46691.66;5030261;28;20259;-79
2022/11/29 03:46:47;;;;;;;73.63;17.07;;;;;;;-145.18;100.00;46687.75;5030464;28;20029;-79
2022/11/29 03:49:21;;;;;;;114.07;17.07;;;;;;;-145.18;100.00;46695.56;5027167;28;20278;-79
2022/11/29 03:52:07;;;;;;;116.73;17.27;;;;;;;-145.18;100.00;46693.59;5029998;28;20278;-79
2022/11/29 03:54:55;;;;;;;141.73;17.67;;;;;;;-145.18;100.00;46689.69;5030589;28;20259;-79
2022/11/29 03:57:30;;;;;;;53.13;16.53;;;;;;;-145.18;100.00;46689.69;5012375;28;20068;-78
2022/11/29 04:00:09;;;;;;;75.20;15.95;;;;;;;-145.18;100.00;46687.75;5030203;28;20342;-78
2022/11/29 04:02:37;;;;;;;39.00;15.93;;;;;;;-145.18;100.00;46697.50;5030170;28;20064;-78
2022/11/29 04:05:31;;;;;;;86.40;16.50;;;;;;;-145.18;100.00;46691.66;5030161;28;20858;-78
2022/11/29 04:08:24;;;;;;;90.17;18.10;;;;;;;-145.18;100.00;46695.56;5008575;28;20271;-78
2022/11/29 04:11:34;;;;;;;57.40;16.03;;;;;;;-145.18;100.00;46693.59;5030464;28;20313;-78
2022/11/29 04:14:21;;;;;;;70.40;16.20;;;;;;;-145.18;100.00;46693.59;5007360;28;20774;-78
2022/11/29 04:16:46;;;;;;;41.30;16.27;;;;;;;-145.18;100.00;46695.56;5030095;28;20298;-78
2022/11/29 04:19:23;;;;;;;45.13;15.40;;;;;;;-145.18;100.00;46687.75;5030503;28;20263;-78
2022/11/29 04:22:06;;;;;;;50.70;17.30;;;;;;;-145.18;100.00;46689.69;5029984;28;20088;-78
2022/11/29 04:25:06;;;;;;;40.60;18.80;;;;;;;-145.18;100.00;46697.50;5030311;28;20810;-78
2022/11/29 04:28:10;;;;;;;46.07;16.83;;;;;;;-145.18;100.00;46689.69;5029809;28;20270;-78
2022/11/29 04:31:01;;;;;;;37.80;17.17;;;;;;;-145.18;100.00;46687.75;4983891;28;20357;-77
2022/11/29 04:33:44;;;;;;;64.13;17.90;;;;;;;-145.18;100.00;46711.19;5025203;28;20313;-78
2022/11/29 04:36:10;;;;;;;31.53;16.80;;;;;;;-145.18;100.00;46699.47;5029524;28;20286;-78
2022/11/29 04:39:00;;;;;;;50.10;18.70;;;;;;;-145.18;100.00;46695.56;5029199;28;20370;-78
2022/11/29 04:41:52;;;;;;;28.17;17.40;;;;;;;-145.18;100.00;46695.56;5030245;28;20044;-78
2022/11/29 04:44:55;;;;;;;24.97;16.77;;;;;;;-145.18;100.00;46699.47;5029378;28;20278;-79
2022/11/29 04:47:29;;;;;;;26.13;16.73;;;;;;;-145.18;100.00;46695.56;5016558;28;20721;-78
2022/11/29 04:50:04;;;;;;;25.73;16.40;;;;;;;-145.18;100.00;46691.66;5065700;22;20315;-77
2022/11/29 04:52:42;;;;;;;25.40;17.17;;;;;;;-145.18;100.00;46689.69;4988683;28;20365;-78
2022/11/29 04:55:35;;;;;;;25.30;17.27;;;;;;;-145.18;100.00;46693.59;5012152;28;20279;-77
2022/11/29 04:58:30;;;;;;;27.87;16.40;;;;;;;-145.18;100.00;46699.47;5012672;28;20267;-78
2022/11/29 05:01:06;;;;;;;29.73;16.07;;;;;;;-145.18;100.00;46709.22;5012504;28;20774;-77
2022/11/29 05:03:40;;;;;;;30.13;16.97;;;;;;;-145.18;100.00;46689.69;5012861;28;20387;-77
2022/11/29 05:06:22;;;;;;;25.07;17.40;;;;;;;-145.18;100.00;46697.50;5012851;28;20271;-77
2022/11/29 05:09:09;;;;;;;27.60;17.83;;;;;;;-145.18;100.00;46695.56;5012555;28;20325;-77
2022/11/29 05:11:57;;;;;;;27.47;17.40;;;;;;;-145.18;100.00;46701.41;5012717;28;20346;-79
2022/11/29 05:14:45;;;;;;;29.00;18.73;;;;;;;-145.18;100.00;46693.59;5012798;28;20298;-79
2022/11/29 05:17:50;;;;;;;28.43;17.23;;;;;;;-145.18;100.00;46693.59;4974870;28;20283;-79
2022/11/29 05:20:48;;;;;;;28.57;18.57;;;;;;;-145.18;100.00;46693.59;5012603;28;20275;-79
2022/11/29 05:23:18;;;;;;;28.73;17.97;;;;;;;-145.18;100.00;46691.66;4963379;28;20274;-79
2022/11/29 05:26:08;;;;;;;30.27;19.27;;;;;;;-145.18;100.00;46691.66;5012342;28;20314;-79
2022/11/29 05:28:48;;;;;;;26.53;18.33;;;;;;;-145.18;100.00;46695.56;4990277;28;20771;-79
2022/11/29 05:31:26;;;;;;;27.50;17.93;;;;;;;-145.18;100.00;46705.31;4996782;28;20623;-79
2022/11/29 05:34:21;;;;;;;25.13;17.00;;;;;;;-145.18;100.00;46691.66;5012372;28;20335;-78
2022/11/29 05:37:17;;;;;;;33.47;16.80;;;;;;;-145.18;100.00;46691.66;5019269;28;20295;-79
2022/11/29 05:40:04;;;;;;;30.52;16.65;;;;;;;-145.18;100.00;46689.69;5012222;28;20263;-77
2022/11/29 05:43:00;;;;;;;25.80;17.20;;;;;;;-145.18;100.00;46709.22;5012671;28;20513;-77
2022/11/29 05:45:47;;;;;;;22.60;16.23;;;;;;;-145.18;100.00;46691.66;5010197;28;20731;-77
2022/11/29 05:48:16;;;;;;;36.40;16.73;;;;;;;-145.18;100.00;46695.56;5011776;28;20045;-77
2022/11/29 05:50:48;;;;;;;31.63;16.73;;;;;;;-145.18;100.00;46703.38;5011075;28;20372;-77
2022/11/29 05:53:44;;;;;;;25.37;17.43;;;;;;;-145.18;100.00;46699.47;5011447;28;20837;-77
2022/11/29 05:56:46;;;;;;;33.03;16.73;;;;;;;-145.18;100.00;46697.50;5004726;28;20916;-77
2022/11/29 05:59:18;;;;;;;27.70;16.80;;;;;;;-145.18;100.00;46691.66;4985792;28;20132;-77
2022/11/29 06:02:08;;;;;;;28.83;17.17;;;;;;;-145.18;100.00;46689.69;5010938;28;20299;-76
2022/11/29 06:04:53;;;;;;;33.47;17.67;;;;;;;-145.18;100.00;46693.59;5004645;28;21723;-76
2022/11/29 06:07:31;;;;;;;32.13;17.37;;;;;;;-145.18;100.00;46699.47;5011059;28;20759;-76
2022/11/29 06:10:11;;;;;;;25.97;17.03;;;;;;;-145.18;100.00;46695.56;5011526;28;20310;-76
2022/11/29 06:12:37;;;;;;;30.90;17.83;;;;;;;-145.18;100.00;46695.56;4993155;28;20303;-76
2022/11/29 06:15:03;;;;;;;31.57;18.37;;;;;;;-145.18;100.00;46697.50;5010365;28;20263;-76
2022/11/29 06:20:33;;;;;;;36.60;19.05;;;;;;;-145.18;100.00;46693.59;5067529;28;20388;-77
2022/11/29 06:23:14;;;;;;;32.93;18.20;;;;;;;-145.18;100.00;46695.56;5067414;28;20089;-77
2022/11/29 06:25:56;;;;;;;34.47;18.20;;;;;;;-145.18;100.00;46699.47;5067244;28;20273;-77
2022/11/29 06:28:47;;;;;;;44.03;18.50;;;;;;;-145.18;100.00;46707.28;5067219;28;20306;-77
2022/11/29 06:31:21;;;;;;;45.07;18.67;;;;;;;-145.18;100.00;46699.47;5074765;22;20340;-77
2022/11/29 06:33:47;;;;;;;39.73;18.47;;;;;;;-145.18;100.00;46699.47;5001138;28;21096;-77
2022/11/29 06:36:21;;;;;;;39.17;20.00;;;;;;;-145.18;100.00;46709.22;5006632;28;20731;-76
2022/11/29 06:38:47;;;;;;;44.23;19.73;;;;;;;-145.18;100.00;46701.41;5008013;28;20398;-76
2022/11/29 06:41:17;;;;;;;45.50;19.47;;;;;;;-145.18;100.00;46697.50;5008531;28;20288;-77
2022/11/29 06:43:43;;;;;;;45.27;19.23;;;;;;;-145.18;100.00;46703.38;5008125;28;20026;-77
2022/11/29 06:46:26;;;;;;;45.07;19.90;;;;;;;-145.18;100.00;46711.19;5008174;28;20286;-77
2022/11/29 06:48:58;;;;;;;39.77;18.67;;;;;;;-145.18;100.00;46703.38;4997085;28;20050;-77
2022/11/29 06:52:05;;;;;;;46.80;19.93;;;;;;;-145.18;100.00;46703.38;4995315;28;20261;-77
2022/11/29 06:54:35;;;;;;;50.55;20.55;;;;;;;-145.18;100.00;46695.56;4993741;28;20260;-77
2022/11/29 06:57:01;;;;;;;43.53;19.90;;;;;;;-145.18;100.00;46705.31;4996211;28;20034;-77
2022/11/29 06:59:39;;;;;;;51.03;20.47;;;;;;;-145.18;100.00;46697.50;4998094;28;20291;-77
2022/11/29 07:02:26;;;;;;;56.33;21.70;;;;;;;-145.18;100.00;46701.41;4995839;28;20026;-77
2022/11/29 07:05:24;;;;;;;55.43;20.03;;;;;;;-145.18;100.00;46693.59;4991894;28;20748;-77
2022/11/29 07:07:56;;;;;;;67.57;20.97;;;;;;;-145.18;100.00;46711.19;4996510;28;20340;-77
2022/11/29 07:10:23;;;;;;;50.37;19.67;;;;;;;-145.18;100.00;46703.38;5007445;28;20279;-78
2022/11/29 07:12:49;;;;;;;50.33;20.47;;;;;;;-145.18;100.00;46697.50;5007615;28;20366;-77
2022/11/29 07:15:18;;;;;;;75.23;21.77;;;;;;;-145.18;100.00;46697.50;5007100;28;20256;-77
2022/11/29 07:18:05;;;;;;;52.90;20.03;;;;;;;-145.18;100.00;46699.47;5007160;28;20267;-77
2022/11/29 07:20:53;;;;;;;50.17;20.27;;;;;;;-145.18;100.00;46703.38;5007909;28;20260;-77
2022/11/29 07:23:27;;;;;;;52.20;20.70;;;;;;;-145.18;100.00;46701.41;5007883;28;20410;-77
2022/11/29 07:26:09;;;;;;;55.57;19.73;;;;;;;-145.18;100.00;46707.28;5007420;28;20280;-77
2022/11/29 07:28:43;;;;;;;55.97;20.00;;;;;;;-145.18;100.00;46707.28;5007369;28;20319;-77
2022/11/29 07:31:09;;;;;;;47.57;19.80;;;;;;;-145.18;100.00;46693.59;4994594;28;20295;-77
2022/11/29 07:33:49;;;;;;;50.87;20.27;;;;;;;-145.18;100.00;46701.41;4993526;28;20280;-77
2022/11/29 07:36:43;;;;;;;71.97;21.57;;;;;;;-145.18;100.00;46701.41;4994545;28;20038;-77
2022/11/29 07:39:12;;;;;;;74.97;20.63;;;;;;;-145.18;100.00;46709.22;4988224;28;20300;-77
2022/11/29 07:41:44;;;;;;;53.63;20.33;;;;;;;-145.18;100.00;46697.50;4993673;28;20279;-77
2022/11/29 07:57:23;;;;;;;53.97;22.13;;;;;;;-145.18;100.00;46707.28;5000990;22;20315;-77
2022/11/29 07:59:48;;;;;;;71.03;20.53;;;;;;;-145.18;100.00;46693.59;4988134;28;20335;-78
2022/11/29 08:02:14;;;;;;;77.43;20.47;;;;;;;-145.18;100.00;46703.38;4965328;28;20066;-77
2022/11/29 08:04:42;;;;;;;69.73;21.67;;;;;;;-145.18;100.00;46701.41;4973372;28;20030;-77
2022/11/29 08:07:08;;;;;;;88.33;22.43;;;;;;;-145.18;100.00;46711.19;4973400;28;20387;-78
2022/11/29 08:09:34;;;;;;;86.30;21.40;;;;;;;-145.18;100.00;46707.28;4972112;28;20271;-77
2022/11/29 08:11:59;;;;;;;92.63;21.90;;;;;;;-145.18;100.00;46705.31;4973962;28;20114;-77
2022/11/29 08:14:24;;;;;;;77.77;22.70;;;;;;;-145.18;100.00;46701.41;4973429;28;20066;-77
2022/11/29 08:16:50;;;;;;;83.10;23.33;;;;;;;-145.18;100.00;46699.47;4973844;28;20035;-78
2022/11/29 08:19:15;;;;;;;67.33;21.80;;;;;;;-145.18;100.00;46699.47;4973219;28;20089;-77
2022/11/29 08:21:45;;;;;;;59.73;22.20;;;;;;;-145.18;100.00;46701.41;4973520;28;20062;-77
2022/11/29 08:24:11;;;;;;;56.23;22.67;;;;;;;-145.18;100.00;46707.28;4973246;28;20034;-77
2022/11/29 08:26:36;;;;;;;52.00;22.53;;;;;;;-145.18;100.00;46703.38;4973560;28;20343;-78
2022/11/29 08:29:02;;;;;;;57.97;21.33;;;;;;;-145.18;100.00;46697.50;4973333;28;20062;-77
2022/11/29 08:31:27;;;;;;;76.10;23.60;;;;;;;-145.18;100.00;46703.38;4973452;28;20042;-77
2022/11/29 08:33:52;;;;;;;61.90;22.83;;;;;;;-145.18;100.00;46701.41;4972279;28;20027;-77
2022/11/29 08:36:19;;;;;;;78.40;23.83;;;;;;;-145.18;100.00;46701.41;4971910;28;20057;-78
2022/11/29 08:38:45;;;;;;;81.93;22.97;;;;;;;-145.18;100.00;46707.28;4972921;28;20039;-78
2022/11/29 08:41:13;;;;;;;55.47;23.50;;;;;;;-145.18;100.00;46699.47;4972682;28;20272;-77
2022/11/29 08:43:39;;;;;;;73.80;23.23;;;;;;;-145.18;100.00;46705.31;4972679;28;20643;-77
2022/11/29 08:46:04;;;;;;;63.93;25.00;;;;;;;-145.18;100.00;46701.41;4973171;28;20283;-77
2022/11/29 08:48:30;;;;;;;67.23;24.13;;;;;;;-145.18;100.00;46699.47;4972662;28;20272;-77
2022/11/29 08:50:55;;;;;;;65.87;25.27;;;;;;;-145.18;100.00;46701.41;4973136;28;20069;-77
2022/11/29 08:53:40;;;;;;;74.97;25.23;;;;;;;-145.18;100.00;46703.38;4972495;28;20035;-77
2022/11/29 08:56:08;;;;;;;96.47;26.20;;;;;;;-145.18;100.00;46697.50;4972847;28;20105;-78
2022/11/29 08:58:34;;;;;;;79.17;25.23;;;;;;;-145.18;100.00;46699.47;4972329;28;20660;-77
2022/11/29 09:01:00;;;;;;;72.67;26.50;;;;;;;-145.18;100.00;46691.66;4972537;28;20346;-78
2022/11/29 09:06:12;;;;;;;85.23;25.60;;;;;;;-145.18;100.00;46693.59;4973106;28;20058;-77
2022/11/29 09:08:38;;;;;;;114.90;25.87;;;;;;;-145.18;100.00;46695.56;4972587;28;20295;-78
2022/11/29 09:11:18;;;;;;;87.80;26.67;;;;;;;-145.18;100.00;46693.59;4972852;28;20275;-77
2022/11/29 09:13:47;;;;;;;83.43;26.63;;;;;;;-145.18;100.00;46691.66;4972306;28;20276;-77
2022/11/29 09:16:16;;;;;;;71.10;24.77;;;;;;;-145.18;100.00;46689.69;4972512;28;20300;-77
2022/11/29 09:18:42;;;;;;;87.93;26.73;;;;;;;-145.18;100.00;46689.69;4972058;28;20301;-78
2022/11/29 09:21:09;;;;;;;79.50;26.70;;;;;;;-145.18;100.00;46687.75;4981590;28;20280;-77
2022/11/29 09:23:35;;;;;;;78.83;27.60;;;;;;;-145.18;100.00;46687.75;4991219;28;20521;-77
2022/11/29 09:26:01;;;;;;;81.07;26.27;;;;;;;-145.18;100.00;46687.75;4991812;28;20370;-78
2022/11/29 09:28:27;;;;;;;91.13;24.87;;;;;;;-145.18;100.00;46687.75;4991181;28;20284;-78
2022/11/29 09:30:52;;;;;;;119.40;27.37;;;;;;;-145.18;100.00;46685.78;4991728;28;20287;-78
2022/11/29 09:33:18;;;;;;;76.93;24.03;;;;;;;-145.18;100.00;46687.75;4973949;28;20104;-78
2022/11/29 09:35:43;;;;;;;104.30;22.53;;;;;;;-145.18;100.00;46685.78;4991491;28;20034;-77
2022/11/29 09:38:13;;;;;;;83.30;19.70;;;;;;;-145.18;100.00;46685.78;4991320;28;20042;-77
2022/11/29 09:41:04;;;;;;;71.67;23.13;;;;;;;-145.18;100.00;46685.78;4991195;28;20030;-77
2022/11/29 09:44:01;;;;;;;75.67;20.63;;;;;;;-145.18;100.00;46687.75;4989415;28;20351;-78
2022/11/29 09:48:13;;;;;;;67.60;18.15;;;;;;;-145.18;100.00;46687.75;5082366;22;20738;-76
2022/11/29 09:51:23;;;;;;;54.40;17.60;;;;;;;-145.18;100.00;46683.84;5048273;28;20441;-76
2022/11/29 09:54:01;;;;;;;77.97;16.83;;;;;;;-145.18;100.00;46685.78;5067435;28;20306;-77
2022/11/29 09:56:45;;;;;;;52.50;14.70;;;;;;;-145.18;100.00;46681.88;5067414;28;20922;-78
2022/11/29 09:59:34;;;;;;;49.50;14.97;;;;;;;-145.18;100.00;46683.84;5050435;28;20287;-79
2022/11/29 10:02:12;;;;;;;52.57;13.60;;;;;;;-145.18;100.00;46685.78;5068095;28;20274;-78
2022/11/29 10:04:49;;;;;;;53.33;15.77;;;;;;;-145.18;100.00;46683.84;5067523;28;20775;-78
2022/11/29 10:07:27;;;;;;;56.37;17.97;;;;;;;-145.18;100.00;46679.94;5049759;28;20290;-78
2022/11/29 10:10:07;;;;;;;62.67;17.70;;;;;;;-145.18;100.00;46685.78;5067300;28;21047;-76
2022/11/29 10:12:43;;;;;;;75.50;18.27;;;;;;;-145.18;100.00;46681.88;5067396;28;20265;-77
2022/11/29 10:15:20;;;;;;;60.60;18.83;;;;;;;-145.18;100.00;46677.97;5067198;28;20818;-77
2022/11/29 10:17:54;;;;;;;79.13;20.63;;;;;;;-145.18;100.00;46677.97;5067112;28;20477;-78
2022/11/29 10:20:23;;;;;;;69.53;18.10;;;;;;;-145.18;100.00;46679.94;5066715;28;20415;-78
2022/11/29 10:23:33;;;;;;;85.77;17.77;;;;;;;-145.18;100.00;46681.88;5067251;28;20738;-78
2022/11/29 10:25:59;;;;;;;98.10;20.60;;;;;;;-145.18;100.00;46677.97;5067000;28;20349;-78
2022/11/29 10:28:33;;;;;;;60.50;18.13;;;;;;;-145.18;100.00;46676.03;5049062;28;20773;-78
2022/11/29 10:31:14;;;;;;;61.80;18.13;;;;;;;-145.18;100.00;46679.94;5066332;28;20108;-78
2022/11/29 10:33:41;;;;;;;61.27;18.33;;;;;;;-145.18;100.00;46679.94;5064814;28;21045;-78
2022/11/29 10:36:38;;;;;;;83.20;20.37;;;;;;;-145.18;100.00;46677.97;5057841;28;20347;-78
2022/11/29 10:39:24;;;;;;;65.63;16.33;;;;;;;-145.18;100.00;46676.03;5061515;28;20265;-78
2022/11/29 10:41:55;;;;;;;60.58;17.38;;;;;;;-145.18;100.00;46677.97;5048814;28;20349;-78
2022/11/29 10:44:20;;;;;;;61.30;18.53;;;;;;;-145.18;100.00;46676.03;5045321;28;20083;-78
2022/11/29 10:46:46;;;;;;;57.40;19.30;;;;;;;-145.18;100.00;46674.06;5046580;28;20294;-78
2022/11/29 10:49:17;;;;;;;69.97;22.27;;;;;;;-145.18;100.00;46676.03;5046389;28;20141;-78
2022/11/29 10:51:43;;;;;;;63.47;20.93;;;;;;;-145.18;100.00;46677.97;5045276;28;20045;-78
2022/11/29 10:54:38;;;;;;;94.10;22.27;;;;;;;-145.18;100.00;46676.03;5045018;28;20297;-78
2022/11/29 10:57:15;;;;;;;77.87;20.97;;;;;;;-145.18;100.00;46672.13;5045225;28;20726;-78
2022/11/29 10:59:40;;;;;;;69.30;22.00;;;;;;;-145.18;100.00;46676.03;5032037;28;20809;-78
2022/11/29 11:02:24;;;;;;;73.17;21.90;;;;;;;-145.18;100.00;46676.03;5033443;28;20275;-78
2022/11/29 11:04:49;;;;;;;75.27;23.37;;;;;;;-145.18;100.00;46677.97;5032993;28;20025;-78
2022/11/29 11:07:26;;;;;;;64.27;22.23;;;;;;;-145.18;100.00;46676.03;5033344;28;20705;-78
2022/11/29 11:09:54;;;;;;;64.30;20.87;;;;;;;-145.18;100.00;46676.03;5033088;28;20065;-78
2022/11/29 11:12:26;;;;;;;69.97;22.23;;;;;;;-145.18;100.00;46679.94;5032974;28;20271;-78
2022/11/29 11:15:12;;;;;;;71.63;23.23;;;;;;;-145.18;100.00;46676.03;5031904;28;20274;-78
2022/11/29 11:17:41;;;;;;;66.15;22.45;;;;;;;-145.18;100.00;46676.03;5032941;28;21050;-78
2022/11/29 11:20:20;;;;;;;62.23;22.33;;;;;;;-145.18;100.00;46679.94;5033207;28;20037;-78
2022/11/29 11:23:00;;;;;;;76.20;24.80;;;;;;;-145.18;100.00;46679.94;5045060;28;20277;-78
2022/11/29 11:25:28;;;;;;;66.53;23.53;;;;;;;-145.18;100.00;46676.03;5072575;28;20249;-78
2022/11/29 11:27:54;;;;;;;76.27;23.07;;;;;;;-145.18;100.00;46677.97;5072982;28;20347;-78
2022/11/29 11:30:28;;;;;;;65.07;21.67;;;;;;;-145.18;100.00;46676.03;5072246;28;20274;-78
2022/11/29 11:33:21;;;;;;;72.67;24.57;;;;;;;-145.18;100.00;46676.03;5073366;28;20268;-77
2022/11/29 11:36:31;;;;;;;72.10;26.27;;;;;;;-145.18;100.00;46676.03;5072720;28;20261;-78
2022/11/29 11:39:10;;;;;;;72.13;24.57;;;;;;;-145.18;100.00;46677.97;5050978;28;20265;-79
2022/11/29 11:44:34;;;;;;;69.77;23.60;;;;;;;-145.18;100.00;46681.88;5072738;28;20264;-78
2022/11/29 11:47:00;;;;;;;65.67;23.00;;;;;;;-145.18;100.00;46681.88;5072666;28;20285;-78
2022/11/29 11:49:34;;;;;;;74.40;23.20;;;;;;;-145.18;100.00;46681.88;5071591;28;20295;-78
2022/11/29 11:52:02;;;;;;;74.13;22.93;;;;;;;-145.18;100.00;46679.94;5072426;28;20340;-78
2022/11/29 11:54:28;;;;;;;74.70;23.47;;;;;;;-145.18;100.00;46681.88;5054682;28;20305;-78
2022/11/29 11:56:54;;;;;;;69.67;24.47;;;;;;;-145.18;100.00;46679.94;5051410;28;20705;-78